Santana de Cataguases, Brazil
Current Conditions -  °F | °C
As of 10:00 AM on Saturday 25 Oct 2014 (Local Time) from SBBQ Reporting Station
Broken Clouds Broken Clouds  
Wind Chill: 68°   Ceiling: 4800
Heat Index: 68°   Visibility: 6mi
Dew Point: 57°   Wind: 6mph
Humidity: 68%   Direction: 90°E
Pressure: 30.15"   Gusts: NA
Location:  21.29°S, 42.56°W
Report Text: SBBQ 251200Z 09005KT 9999 BKN048 20/14 Q1021
Loading
Personal Weather Stations






























Interactive Weather Map
Tropical Storm Tracking
New forecast layout! Learn more

10-Day Weather Forecast

Advertisements
Track Severe Weather on mobile